sensor_id;sensor_type;location;lat;lon;timestamp;P1;durP1;ratioP1;P2;durP2;ratioP2
36833;SDS011;48003;52.084;5.224;2023-04-25T00:00:47;17.7;;;4.0;;
36833;SDS011;48003;52.084;5.224;2023-04-25T00:02:24;15.6;;;3.7;;
36833;SDS011;48003;52.084;5.224;2023-04-25T00:05:37;18.11;;;4.0;;
36833;SDS011;48003;52.084;5.224;2023-04-25T00:07:13;15.4;;;3.6;;
36833;SDS011;48003;52.084;5.224;2023-04-25T00:08:49;15.1;;;4.1;;
36833;SDS011;48003;52.084;5.224;2023-04-25T00:12:01;22.6;;;4.5;;
36833;SDS011;48003;52.084;5.224;2023-04-25T00:13:37;23.4;;;4.1;;
36833;SDS011;48003;52.084;5.224;2023-04-25T00:15:14;21.2;;;4.3;;
36833;SDS011;48003;52.084;5.224;2023-04-25T00:18:26;20.6;;;5.2;;
36833;SDS011;48003;52.084;5.224;2023-04-25T00:20:02;20.0;;;4.8;;
36833;SDS011;48003;52.084;5.224;2023-04-25T00:21:38;16.61;;;3.9;;
36833;SDS011;48003;52.084;5.224;2023-04-25T00:23:15;16.4;;;3.8;;
36833;SDS011;48003;52.084;5.224;2023-04-25T00:26:28;17.41;;;4.0;;
36833;SDS011;48003;52.084;5.224;2023-04-25T00:28:05;16.4;;;4.2;;
36833;SDS011;48003;52.084;5.224;2023-04-25T00:29:41;15.6;;;4.1;;
36833;SDS011;48003;52.084;5.224;2023-04-25T00:32:53;18.11;;;3.8;;
36833;SDS011;48003;52.084;5.224;2023-04-25T00:34:29;16.7;;;3.9;;
36833;SDS011;48003;52.084;5.224;2023-04-25T00:36:06;13.4;;;3.6;;
36833;SDS011;48003;52.084;5.224;2023-04-25T00:39:19;11.1;;;3.7;;
36833;SDS011;48003;52.084;5.224;2023-04-25T00:40:56;16.11;;;3.5;;
36833;SDS011;48003;52.084;5.224;2023-04-25T00:42:32;13.5;;;3.9;;
36833;SDS011;48003;52.084;5.224;2023-04-25T00:44:08;15.3;;;3.7;;
36833;SDS011;48003;52.084;5.224;2023-04-25T00:47:23;17.5;;;3.7;;
36833;SDS011;48003;52.084;5.224;2023-04-25T00:49:00;14.9;;;3.5;;
36833;SDS011;48003;52.084;5.224;2023-04-25T00:50:36;15.2;;;3.9;;
36833;SDS011;48003;52.084;5.224;2023-04-25T00:53:50;16.9;;;3.8;;
36833;SDS011;48003;52.084;5.224;2023-04-25T00:55:27;16.11;;;3.8;;
36833;SDS011;48003;52.084;5.224;2023-04-25T00:57:03;14.1;;;3.7;;
36833;SDS011;48003;52.084;5.224;2023-04-25T01:00:17;20.0;;;4.2;;
36833;SDS011;48003;52.084;5.224;2023-04-25T01:01:53;15.3;;;3.8;;
36833;SDS011;48003;52.084;5.224;2023-04-25T01:03:30;18.5;;;3.8;;
36833;SDS011;48003;52.084;5.224;2023-04-25T01:05:09;13.8;;;3.9;;
36833;SDS011;48003;52.084;5.224;2023-04-25T01:08:21;12.9;;;4.0;;
36833;SDS011;48003;52.084;5.224;2023-04-25T01:09:59;17.41;;;4.3;;
36833;SDS011;48003;52.084;5.224;2023-04-25T01:11:35;14.7;;;3.8;;
36833;SDS011;48003;52.084;5.224;2023-04-25T01:14:47;15.9;;;3.9;;
36833;SDS011;48003;52.084;5.224;2023-04-25T01:16:23;16.4;;;4.1;;
36833;SDS011;48003;52.084;5.224;2023-04-25T01:18:00;14.2;;;3.9;;
36833;SDS011;48003;52.084;5.224;2023-04-25T01:21:13;17.0;;;4.41;;
36833;SDS011;48003;52.084;5.224;2023-04-25T01:22:49;14.9;;;4.0;;
36833;SDS011;48003;52.084;5.224;2023-04-25T01:24:26;17.2;;;4.2;;
36833;SDS011;48003;52.084;5.224;2023-04-25T01:26:03;13.9;;;3.9;;
36833;SDS011;48003;52.084;5.224;2023-04-25T01:29:18;14.7;;;4.1;;
36833;SDS011;48003;52.084;5.224;2023-04-25T01:30:55;16.9;;;4.41;;
36833;SDS011;48003;52.084;5.224;2023-04-25T01:32:32;16.8;;;4.2;;
36833;SDS011;48003;52.084;5.224;2023-04-25T01:35:45;20.6;;;4.3;;
36833;SDS011;48003;52.084;5.224;2023-04-25T01:37:22;16.5;;;3.9;;
36833;SDS011;48003;52.084;5.224;2023-04-25T01:38:58;17.7;;;4.1;;
36833;SDS011;48003;52.084;5.224;2023-04-25T01:40:36;16.2;;;4.1;;
36833;SDS011;48003;52.084;5.224;2023-04-25T01:43:54;16.0;;;4.41;;
36833;SDS011;48003;52.084;5.224;2023-04-25T01:45:30;15.1;;;4.0;;
36833;SDS011;48003;52.084;5.224;2023-04-25T01:47:06;18.61;;;4.5;;
36833;SDS011;48003;52.084;5.224;2023-04-25T01:50:18;15.0;;;4.1;;
36833;SDS011;48003;52.084;5.224;2023-04-25T01:51:54;13.3;;;4.0;;
36833;SDS011;48003;52.084;5.224;2023-04-25T01:53:30;17.3;;;4.61;;
36833;SDS011;48003;52.084;5.224;2023-04-25T01:56:49;15.6;;;4.0;;
36833;SDS011;48003;52.084;5.224;2023-04-25T01:58:26;16.7;;;4.3;;
36833;SDS011;48003;52.084;5.224;2023-04-25T02:00:04;14.8;;;4.3;;
36833;SDS011;48003;52.084;5.224;2023-04-25T02:01:42;16.7;;;4.61;;
36833;SDS011;48003;52.084;5.224;2023-04-25T02:04:55;16.7;;;4.5;;
36833;SDS011;48003;52.084;5.224;2023-04-25T02:06:30;17.3;;;4.41;;
36833;SDS011;48003;52.084;5.224;2023-04-25T02:08:07;12.8;;;3.9;;
36833;SDS011;48003;52.084;5.224;2023-04-25T02:11:21;13.8;;;4.2;;
36833;SDS011;48003;52.084;5.224;2023-04-25T02:12:57;15.3;;;4.41;;
36833;SDS011;48003;52.084;5.224;2023-04-25T02:14:33;15.3;;;4.7;;
36833;SDS011;48003;52.084;5.224;2023-04-25T02:16:09;15.3;;;4.5;;
36833;SDS011;48003;52.084;5.224;2023-04-25T02:19:21;19.2;;;4.2;;
36833;SDS011;48003;52.084;5.224;2023-04-25T02:20:58;18.41;;;4.61;;
36833;SDS011;48003;52.084;5.224;2023-04-25T02:22:35;18.3;;;4.2;;
36833;SDS011;48003;52.084;5.224;2023-04-25T02:25:47;17.7;;;4.61;;
36833;SDS011;48003;52.084;5.224;2023-04-25T02:27:24;14.9;;;4.5;;
36833;SDS011;48003;52.084;5.224;2023-04-25T02:29:01;14.5;;;4.2;;
36833;SDS011;48003;52.084;5.224;2023-04-25T02:32:12;16.3;;;4.7;;
36833;SDS011;48003;52.084;5.224;2023-04-25T02:33:49;20.11;;;4.1;;
36833;SDS011;48003;52.084;5.224;2023-04-25T02:35:26;15.4;;;3.8;;
36833;SDS011;48003;52.084;5.224;2023-04-25T02:37:02;17.91;;;4.5;;
36833;SDS011;48003;52.084;5.224;2023-04-25T02:40:15;12.8;;;3.7;;
36833;SDS011;48003;52.084;5.224;2023-04-25T02:41:51;17.8;;;4.41;;
36833;SDS011;48003;52.084;5.224;2023-04-25T02:43:27;14.5;;;4.0;;
36833;SDS011;48003;52.084;5.224;2023-04-25T02:46:41;15.2;;;4.0;;
36833;SDS011;48003;52.084;5.224;2023-04-25T02:48:17;13.6;;;3.8;;
36833;SDS011;48003;52.084;5.224;2023-04-25T02:49:53;15.9;;;3.8;;
36833;SDS011;48003;52.084;5.224;2023-04-25T02:53:05;15.7;;;3.8;;
36833;SDS011;48003;52.084;5.224;2023-04-25T02:54:41;14.5;;;3.6;;
36833;SDS011;48003;52.084;5.224;2023-04-25T02:56:17;12.5;;;3.8;;
36833;SDS011;48003;52.084;5.224;2023-04-25T02:59:30;13.0;;;3.8;;
36833;SDS011;48003;52.084;5.224;2023-04-25T03:01:06;18.5;;;4.1;;
36833;SDS011;48003;52.084;5.224;2023-04-25T03:02:42;17.2;;;3.5;;
36833;SDS011;48003;52.084;5.224;2023-04-25T03:04:18;19.41;;;3.9;;
36833;SDS011;48003;52.084;5.224;2023-04-25T03:07:30;13.3;;;3.9;;
36833;SDS011;48003;52.084;5.224;2023-04-25T03:09:06;16.8;;;3.9;;
36833;SDS011;48003;52.084;5.224;2023-04-25T03:10:42;14.7;;;3.5;;
36833;SDS011;48003;52.084;5.224;2023-04-25T03:13:56;14.3;;;3.6;;
36833;SDS011;48003;52.084;5.224;2023-04-25T03:15:32;13.7;;;3.5;;
36833;SDS011;48003;52.084;5.224;2023-04-25T03:17:08;15.2;;;3.2;;
36833;SDS011;48003;52.084;5.224;2023-04-25T03:20:20;14.8;;;3.6;;
36833;SDS011;48003;52.084;5.224;2023-04-25T03:21:56;14.9;;;3.9;;
36833;SDS011;48003;52.084;5.224;2023-04-25T03:23:32;16.7;;;3.9;;
36833;SDS011;48003;52.084;5.224;2023-04-25T03:25:09;15.9;;;4.1;;
36833;SDS011;48003;52.084;5.224;2023-04-25T03:28:21;10.3;;;3.3;;
36833;SDS011;48003;52.084;5.224;2023-04-25T03:29:58;16.9;;;4.1;;
36833;SDS011;48003;52.084;5.224;2023-04-25T03:31:34;19.3;;;3.6;;
36833;SDS011;48003;52.084;5.224;2023-04-25T03:34:46;16.2;;;3.6;;
36833;SDS011;48003;52.084;5.224;2023-04-25T03:36:22;10.9;;;2.9;;
36833;SDS011;48003;52.084;5.224;2023-04-25T03:37:59;14.2;;;2.8;;
36833;SDS011;48003;52.084;5.224;2023-04-25T03:41:12;9.4;;;2.31;;
36833;SDS011;48003;52.084;5.224;2023-04-25T03:42:48;10.5;;;2.31;;
36833;SDS011;48003;52.084;5.224;2023-04-25T03:44:24;9.5;;;2.31;;
36833;SDS011;48003;52.084;5.224;2023-04-25T03:47:36;7.6;;;2.1;;
36833;SDS011;48003;52.084;5.224;2023-04-25T03:49:12;8.81;;;1.9;;
36833;SDS011;48003;52.084;5.224;2023-04-25T03:50:49;9.71;;;1.8;;
36833;SDS011;48003;52.084;5.224;2023-04-25T03:52:25;11.6;;;2.31;;
36833;SDS011;48003;52.084;5.224;2023-04-25T03:55:37;5.5;;;1.9;;
36833;SDS011;48003;52.084;5.224;2023-04-25T03:57:13;9.31;;;2.21;;
36833;SDS011;48003;52.084;5.224;2023-04-25T03:58:49;5.6;;;1.7;;
36833;SDS011;48003;52.084;5.224;2023-04-25T04:02:01;7.3;;;2.0;;
36833;SDS011;48003;52.084;5.224;2023-04-25T04:03:38;6.0;;;1.7;;
36833;SDS011;48003;52.084;5.224;2023-04-25T04:05:14;8.5;;;1.9;;
36833;SDS011;48003;52.084;5.224;2023-04-25T04:08:26;7.3;;;1.6;;
36833;SDS011;48003;52.084;5.224;2023-04-25T04:10:02;8.81;;;2.0;;
36833;SDS011;48003;52.084;5.224;2023-04-25T04:11:38;10.5;;;2.1;;
36833;SDS011;48003;52.084;5.224;2023-04-25T04:13:14;9.4;;;2.4;;
36833;SDS011;48003;52.084;5.224;2023-04-25T04:16:27;12.6;;;2.5;;
36833;SDS011;48003;52.084;5.224;2023-04-25T04:18:03;6.7;;;2.0;;
36833;SDS011;48003;52.084;5.224;2023-04-25T04:19:39;11.6;;;2.31;;
36833;SDS011;48003;52.084;5.224;2023-04-25T04:22:51;9.21;;;2.0;;
36833;SDS011;48003;52.084;5.224;2023-04-25T04:24:27;8.31;;;1.9;;
36833;SDS011;48003;52.084;5.224;2023-04-25T04:26:03;7.1;;;2.0;;
36833;SDS011;48003;52.084;5.224;2023-04-25T04:29:16;7.8;;;1.8;;
36833;SDS011;48003;52.084;5.224;2023-04-25T04:30:53;8.9;;;2.4;;
36833;SDS011;48003;52.084;5.224;2023-04-25T04:32:29;8.71;;;1.9;;
36833;SDS011;48003;52.084;5.224;2023-04-25T04:35:41;8.81;;;2.1;;
36833;SDS011;48003;52.084;5.224;2023-04-25T04:37:18;10.0;;;2.4;;
36833;SDS011;48003;52.084;5.224;2023-04-25T04:38:53;9.6;;;1.8;;
36833;SDS011;48003;52.084;5.224;2023-04-25T04:40:30;10.21;;;2.21;;
36833;SDS011;48003;52.084;5.224;2023-04-25T04:43:42;8.0;;;1.9;;
36833;SDS011;48003;52.084;5.224;2023-04-25T04:45:19;9.4;;;2.0;;
36833;SDS011;48003;52.084;5.224;2023-04-25T04:46:55;9.4;;;2.4;;
36833;SDS011;48003;52.084;5.224;2023-04-25T04:50:09;5.9;;;1.9;;
36833;SDS011;48003;52.084;5.224;2023-04-25T04:51:46;7.0;;;2.31;;
36833;SDS011;48003;52.084;5.224;2023-04-25T04:53:22;9.9;;;1.9;;
36833;SDS011;48003;52.084;5.224;2023-04-25T04:56:34;10.3;;;1.7;;
36833;SDS011;48003;52.084;5.224;2023-04-25T04:58:11;9.31;;;2.4;;
36833;SDS011;48003;52.084;5.224;2023-04-25T04:59:47;10.6;;;2.0;;
36833;SDS011;48003;52.084;5.224;2023-04-25T05:01:23;10.5;;;2.1;;
36833;SDS011;48003;52.084;5.224;2023-04-25T05:04:36;11.6;;;2.0;;
36833;SDS011;48003;52.084;5.224;2023-04-25T05:06:12;9.71;;;1.8;;
36833;SDS011;48003;52.084;5.224;2023-04-25T05:07:48;12.8;;;2.0;;
36833;SDS011;48003;52.084;5.224;2023-04-25T05:11:02;11.4;;;2.21;;
36833;SDS011;48003;52.084;5.224;2023-04-25T05:12:38;7.7;;;2.4;;
36833;SDS011;48003;52.084;5.224;2023-04-25T05:14:14;8.5;;;2.1;;
36833;SDS011;48003;52.084;5.224;2023-04-25T05:17:26;8.1;;;2.21;;
36833;SDS011;48003;52.084;5.224;2023-04-25T05:19:03;11.0;;;2.31;;
36833;SDS011;48003;52.084;5.224;2023-04-25T05:20:39;8.6;;;2.21;;
36833;SDS011;48003;52.084;5.224;2023-04-25T05:23:51;9.31;;;2.31;;
36833;SDS011;48003;52.084;5.224;2023-04-25T05:25:27;12.3;;;2.6;;
36833;SDS011;48003;52.084;5.224;2023-04-25T05:27:03;11.5;;;2.7;;
36833;SDS011;48003;52.084;5.224;2023-04-25T05:28:39;13.0;;;2.4;;
36833;SDS011;48003;52.084;5.224;2023-04-25T05:31:52;10.4;;;2.21;;
36833;SDS011;48003;52.084;5.224;2023-04-25T05:33:28;9.4;;;1.8;;
36833;SDS011;48003;52.084;5.224;2023-04-25T05:35:04;6.1;;;1.5;;
36833;SDS011;48003;52.084;5.224;2023-04-25T05:38:17;7.3;;;2.1;;
36833;SDS011;48003;52.084;5.224;2023-04-25T05:39:53;11.3;;;2.1;;
36833;SDS011;48003;52.084;5.224;2023-04-25T05:41:29;9.4;;;1.9;;
36833;SDS011;48003;52.084;5.224;2023-04-25T05:44:42;9.4;;;2.1;;
36833;SDS011;48003;52.084;5.224;2023-04-25T05:46:18;8.5;;;1.9;;
36833;SDS011;48003;52.084;5.224;2023-04-25T05:47:54;9.1;;;1.7;;
36833;SDS011;48003;52.084;5.224;2023-04-25T05:49:30;8.71;;;1.9;;
36833;SDS011;48003;52.084;5.224;2023-04-25T05:52:43;6.6;;;1.8;;
36833;SDS011;48003;52.084;5.224;2023-04-25T05:54:20;7.4;;;1.7;;
36833;SDS011;48003;52.084;5.224;2023-04-25T05:55:55;7.4;;;1.7;;
36833;SDS011;48003;52.084;5.224;2023-04-25T05:59:07;8.1;;;1.8;;
36833;SDS011;48003;52.084;5.224;2023-04-25T06:00:43;11.9;;;1.9;;
36833;SDS011;48003;52.084;5.224;2023-04-25T06:02:20;8.0;;;1.9;;
36833;SDS011;48003;52.084;5.224;2023-04-25T06:05:33;8.31;;;1.8;;
36833;SDS011;48003;52.084;5.224;2023-04-25T06:07:09;6.7;;;1.6;;
36833;SDS011;48003;52.084;5.224;2023-04-25T06:08:45;7.0;;;1.8;;
36833;SDS011;48003;52.084;5.224;2023-04-25T06:11:57;8.71;;;1.9;;
36833;SDS011;48003;52.084;5.224;2023-04-25T06:13:33;10.5;;;1.6;;
36833;SDS011;48003;52.084;5.224;2023-04-25T06:15:10;8.71;;;1.6;;
36833;SDS011;48003;52.084;5.224;2023-04-25T06:16:46;9.81;;;1.7;;
36833;SDS011;48003;52.084;5.224;2023-04-25T06:19:58;9.1;;;2.21;;
36833;SDS011;48003;52.084;5.224;2023-04-25T06:21:34;11.5;;;1.7;;
36833;SDS011;48003;52.084;5.224;2023-04-25T06:23:10;7.6;;;1.7;;
36833;SDS011;48003;52.084;5.224;2023-04-25T06:26:23;8.81;;;1.8;;
36833;SDS011;48003;52.084;5.224;2023-04-25T06:28:00;7.3;;;2.1;;
36833;SDS011;48003;52.084;5.224;2023-04-25T06:29:36;9.31;;;1.7;;
36833;SDS011;48003;52.084;5.224;2023-04-25T06:32:48;10.9;;;1.8;;
36833;SDS011;48003;52.084;5.224;2023-04-25T06:34:24;7.5;;;1.8;;
36833;SDS011;48003;52.084;5.224;2023-04-25T06:36:00;11.5;;;1.8;;
36833;SDS011;48003;52.084;5.224;2023-04-25T06:37:36;13.1;;;2.0;;
36833;SDS011;48003;52.084;5.224;2023-04-25T06:40:49;10.9;;;2.0;;
36833;SDS011;48003;52.084;5.224;2023-04-25T06:42:25;8.4;;;2.0;;
36833;SDS011;48003;52.084;5.224;2023-04-25T06:44:01;12.4;;;2.31;;
36833;SDS011;48003;52.084;5.224;2023-04-25T06:47:13;13.4;;;2.1;;
36833;SDS011;48003;52.084;5.224;2023-04-25T06:48:51;13.4;;;2.1;;
36833;SDS011;48003;52.084;5.224;2023-04-25T06:50:26;9.1;;;1.7;;
36833;SDS011;48003;52.084;5.224;2023-04-25T06:53:39;9.5;;;1.6;;
36833;SDS011;48003;52.084;5.224;2023-04-25T06:55:16;9.71;;;1.9;;
36833;SDS011;48003;52.084;5.224;2023-04-25T06:56:52;12.9;;;2.0;;
36833;SDS011;48003;52.084;5.224;2023-04-25T07:00:06;9.21;;;1.6;;
36833;SDS011;48003;52.084;5.224;2023-04-25T07:01:44;10.7;;;2.1;;
36833;SDS011;48003;52.084;5.224;2023-04-25T07:03:20;10.9;;;2.1;;
36833;SDS011;48003;52.084;5.224;2023-04-25T07:04:56;9.71;;;1.8;;
36833;SDS011;48003;52.084;5.224;2023-04-25T07:08:09;11.9;;;2.1;;
36833;SDS011;48003;52.084;5.224;2023-04-25T07:09:45;13.8;;;2.1;;
36833;SDS011;48003;52.084;5.224;2023-04-25T07:11:21;9.81;;;2.0;;
36833;SDS011;48003;52.084;5.224;2023-04-25T07:14:33;10.5;;;1.9;;
36833;SDS011;48003;52.084;5.224;2023-04-25T07:16:10;10.0;;;1.9;;
36833;SDS011;48003;52.084;5.224;2023-04-25T07:17:46;13.4;;;2.31;;
36833;SDS011;48003;52.084;5.224;2023-04-25T07:20:58;11.8;;;1.8;;
36833;SDS011;48003;52.084;5.224;2023-04-25T07:22:34;12.0;;;2.0;;
36833;SDS011;48003;52.084;5.224;2023-04-25T07:24:10;8.1;;;1.6;;
36833;SDS011;48003;52.084;5.224;2023-04-25T07:25:46;11.0;;;2.1;;
36833;SDS011;48003;52.084;5.224;2023-04-25T07:28:58;12.4;;;2.0;;
36833;SDS011;48003;52.084;5.224;2023-04-25T07:30:35;8.6;;;1.7;;
36833;SDS011;48003;52.084;5.224;2023-04-25T07:32:11;10.6;;;1.9;;
36833;SDS011;48003;52.084;5.224;2023-04-25T07:35:23;10.7;;;1.9;;
36833;SDS011;48003;52.084;5.224;2023-04-25T07:36:59;11.0;;;2.21;;
36833;SDS011;48003;52.084;5.224;2023-04-25T07:38:35;11.8;;;2.1;;
36833;SDS011;48003;52.084;5.224;2023-04-25T07:41:49;12.0;;;2.0;;
36833;SDS011;48003;52.084;5.224;2023-04-25T07:43:25;12.0;;;2.0;;
36833;SDS011;48003;52.084;5.224;2023-04-25T07:45:01;6.7;;;1.6;;
36833;SDS011;48003;52.084;5.224;2023-04-25T07:46:37;11.0;;;1.8;;
36833;SDS011;48003;52.084;5.224;2023-04-25T07:49:53;7.5;;;1.8;;
36833;SDS011;48003;52.084;5.224;2023-04-25T07:51:29;11.2;;;1.9;;
36833;SDS011;48003;52.084;5.224;2023-04-25T07:53:05;9.9;;;1.9;;
36833;SDS011;48003;52.084;5.224;2023-04-25T07:56:18;10.21;;;1.5;;
36833;SDS011;48003;52.084;5.224;2023-04-25T07:57:54;8.31;;;1.4;;
36833;SDS011;48003;52.084;5.224;2023-04-25T07:59:30;8.4;;;1.7;;
36833;SDS011;48003;52.084;5.224;2023-04-25T08:02:42;7.5;;;1.5;;
36833;SDS011;48003;52.084;5.224;2023-04-25T08:04:18;8.4;;;1.4;;
36833;SDS011;48003;52.084;5.224;2023-04-25T08:05:54;12.9;;;1.9;;
36833;SDS011;48003;52.084;5.224;2023-04-25T08:09:07;7.2;;;1.2;;
36833;SDS011;48003;52.084;5.224;2023-04-25T08:10:43;10.3;;;1.6;;
36833;SDS011;48003;52.084;5.224;2023-04-25T08:12:19;8.0;;;1.3;;
36833;SDS011;48003;52.084;5.224;2023-04-25T08:13:55;9.4;;;1.4;;
36833;SDS011;48003;52.084;5.224;2023-04-25T08:17:07;12.2;;;1.6;;
36833;SDS011;48003;52.084;5.224;2023-04-25T08:18:44;12.1;;;1.7;;
36833;SDS011;48003;52.084;5.224;2023-04-25T08:20:21;13.3;;;1.4;;
36833;SDS011;48003;52.084;5.224;2023-04-25T08:23:33;7.5;;;1.7;;
36833;SDS011;48003;52.084;5.224;2023-04-25T08:25:09;7.7;;;1.5;;
36833;SDS011;48003;52.084;5.224;2023-04-25T08:26:45;6.2;;;1.5;;
36833;SDS011;48003;52.084;5.224;2023-04-25T08:29:57;9.1;;;1.7;;
36833;SDS011;48003;52.084;5.224;2023-04-25T08:31:33;8.6;;;1.3;;
36833;SDS011;48003;52.084;5.224;2023-04-25T08:33:10;7.4;;;1.5;;
36833;SDS011;48003;52.084;5.224;2023-04-25T08:34:46;7.5;;;1.7;;
36833;SDS011;48003;52.084;5.224;2023-04-25T08:37:58;7.1;;;1.2;;
36833;SDS011;48003;52.084;5.224;2023-04-25T08:39:34;7.0;;;1.2;;
36833;SDS011;48003;52.084;5.224;2023-04-25T08:41:10;7.1;;;1.2;;
36833;SDS011;48003;52.084;5.224;2023-04-25T08:44:25;7.2;;;1.2;;
36833;SDS011;48003;52.084;5.224;2023-04-25T08:46:02;5.9;;;1.5;;
36833;SDS011;48003;52.084;5.224;2023-04-25T08:47:38;7.7;;;1.4;;
36833;SDS011;48003;52.084;5.224;2023-04-25T08:50:54;7.8;;;1.11;;
36833;SDS011;48003;52.084;5.224;2023-04-25T08:52:35;6.4;;;1.3;;
36833;SDS011;48003;52.084;5.224;2023-04-25T08:54:13;9.5;;;1.4;;
36833;SDS011;48003;52.084;5.224;2023-04-25T08:55:51;6.2;;;1.3;;
36833;SDS011;48003;52.084;5.224;2023-04-25T08:59:07;7.4;;;1.2;;
36833;SDS011;48003;52.084;5.224;2023-04-25T09:00:43;8.2;;;1.5;;
36833;SDS011;48003;52.084;5.224;2023-04-25T09:02:21;9.1;;;1.8;;
36833;SDS011;48003;52.084;5.224;2023-04-25T09:05:33;8.4;;;1.7;;
36833;SDS011;48003;52.084;5.224;2023-04-25T09:07:10;5.5;;;1.3;;
36833;SDS011;48003;52.084;5.224;2023-04-25T09:08:49;5.5;;;1.11;;
36833;SDS011;48003;52.084;5.224;2023-04-25T09:10:26;7.0;;;1.2;;
36833;SDS011;48003;52.084;5.224;2023-04-25T09:13:40;6.1;;;1.0;;
36833;SDS011;48003;52.084;5.224;2023-04-25T09:15:16;6.7;;;1.0;;
36833;SDS011;48003;52.084;5.224;2023-04-25T09:17:00;5.0;;;1.2;;
36833;SDS011;48003;52.084;5.224;2023-04-25T09:20:13;3.6;;;0.7;;
36833;SDS011;48003;52.084;5.224;2023-04-25T09:21:50;4.2;;;1.0;;
36833;SDS011;48003;52.084;5.224;2023-04-25T09:23:26;6.8;;;1.0;;
36833;SDS011;48003;52.084;5.224;2023-04-25T09:25:04;5.4;;;0.9;;
36833;SDS011;48003;52.084;5.224;2023-04-25T09:28:23;5.2;;;1.2;;
36833;SDS011;48003;52.084;5.224;2023-04-25T09:30:00;4.3;;;0.9;;
36833;SDS011;48003;52.084;5.224;2023-04-25T09:31:36;4.41;;;1.0;;
36833;SDS011;48003;52.084;5.224;2023-04-25T09:34:50;7.1;;;1.2;;
36833;SDS011;48003;52.084;5.224;2023-04-25T09:36:29;5.4;;;0.9;;
36833;SDS011;48003;52.084;5.224;2023-04-25T09:38:07;5.6;;;0.9;;
36833;SDS011;48003;52.084;5.224;2023-04-25T09:39:44;8.6;;;1.6;;
36833;SDS011;48003;52.084;5.224;2023-04-25T09:42:59;5.6;;;1.3;;
36833;SDS011;48003;52.084;5.224;2023-04-25T09:44:36;5.3;;;0.9;;
36833;SDS011;48003;52.084;5.224;2023-04-25T09:46:12;4.91;;;1.11;;
36833;SDS011;48003;52.084;5.224;2023-04-25T09:49:25;6.1;;;1.11;;
36833;SDS011;48003;52.084;5.224;2023-04-25T09:51:03;5.2;;;1.2;;
36833;SDS011;48003;52.084;5.224;2023-04-25T09:52:42;7.7;;;1.4;;
36833;SDS011;48003;52.084;5.224;2023-04-25T09:54:19;7.1;;;1.11;;
36833;SDS011;48003;52.084;5.224;2023-04-25T09:57:32;7.6;;;1.8;;
36833;SDS011;48003;52.084;5.224;2023-04-25T09:59:09;11.3;;;4.1;;
36833;SDS011;48003;52.084;5.224;2023-04-25T10:00:46;8.0;;;1.5;;
36833;SDS011;48003;52.084;5.224;2023-04-25T10:04:03;6.0;;;1.0;;
36833;SDS011;48003;52.084;5.224;2023-04-25T10:05:42;7.9;;;1.3;;
36833;SDS011;48003;52.084;5.224;2023-04-25T10:07:19;8.4;;;1.4;;
36833;SDS011;48003;52.084;5.224;2023-04-25T10:08:57;7.5;;;1.5;;
36833;SDS011;48003;52.084;5.224;2023-04-25T10:12:12;5.5;;;1.11;;
36833;SDS011;48003;52.084;5.224;2023-04-25T10:13:48;5.8;;;1.2;;
36833;SDS011;48003;52.084;5.224;2023-04-25T10:15:26;8.31;;;1.6;;
36833;SDS011;48003;52.084;5.224;2023-04-25T10:18:39;6.6;;;1.4;;
36833;SDS011;48003;52.084;5.224;2023-04-25T10:20:15;9.5;;;1.6;;
36833;SDS011;48003;52.084;5.224;2023-04-25T10:21:52;5.2;;;1.4;;
36833;SDS011;48003;52.084;5.224;2023-04-25T10:23:34;7.6;;;1.5;;
36833;SDS011;48003;52.084;5.224;2023-04-25T10:26:48;5.11;;;1.0;;
36833;SDS011;48003;52.084;5.224;2023-04-25T10:28:26;5.7;;;1.0;;
36833;SDS011;48003;52.084;5.224;2023-04-25T10:30:02;6.3;;;0.9;;
36833;SDS011;48003;52.084;5.224;2023-04-25T10:33:29;7.5;;;1.2;;
36833;SDS011;48003;52.084;5.224;2023-04-25T10:35:11;5.0;;;1.2;;
36833;SDS011;48003;52.084;5.224;2023-04-25T10:36:50;7.6;;;1.11;;
36833;SDS011;48003;52.084;5.224;2023-04-25T10:38:27;5.11;;;1.0;;
36833;SDS011;48003;52.084;5.224;2023-04-25T10:41:45;3.6;;;0.7;;
36833;SDS011;48003;52.084;5.224;2023-04-25T10:43:38;4.7;;;1.0;;
36833;SDS011;48003;52.084;5.224;2023-04-25T10:45:15;7.1;;;1.0;;
36833;SDS011;48003;52.084;5.224;2023-04-25T10:46:51;4.8;;;0.9;;
36833;SDS011;48003;52.084;5.224;2023-04-25T10:50:05;5.5;;;0.9;;
36833;SDS011;48003;52.084;5.224;2023-04-25T10:51:43;6.2;;;1.0;;
36833;SDS011;48003;52.084;5.224;2023-04-25T10:53:19;4.7;;;1.0;;
36833;SDS011;48003;52.084;5.224;2023-04-25T10:55:00;4.3;;;0.9;;
36833;SDS011;48003;52.084;5.224;2023-04-25T10:58:20;4.8;;;0.9;;
36833;SDS011;48003;52.084;5.224;2023-04-25T11:00:00;3.3;;;0.9;;
36833;SDS011;48003;52.084;5.224;2023-04-25T11:01:41;5.9;;;1.3;;
36833;SDS011;48003;52.084;5.224;2023-04-25T11:03:20;5.8;;;1.0;;
36833;SDS011;48003;52.084;5.224;2023-04-25T11:06:43;5.11;;;1.11;;
36833;SDS011;48003;52.084;5.224;2023-04-25T11:08:36;5.9;;;1.3;;
36833;SDS011;48003;52.084;5.224;2023-04-25T11:10:26;5.2;;;1.11;;
36833;SDS011;48003;52.084;5.224;2023-04-25T11:12:03;4.91;;;1.11;;
36833;SDS011;48003;52.084;5.224;2023-04-25T11:15:16;5.9;;;1.11;;
36833;SDS011;48003;52.084;5.224;2023-04-25T11:16:52;7.2;;;2.1;;
36833;SDS011;48003;52.084;5.224;2023-04-25T11:18:29;7.3;;;2.1;;
36833;SDS011;48003;52.084;5.224;2023-04-25T11:20:05;6.6;;;2.31;;
36833;SDS011;48003;52.084;5.224;2023-04-25T11:23:19;5.6;;;1.2;;
36833;SDS011;48003;52.084;5.224;2023-04-25T11:24:55;6.0;;;1.2;;
36833;SDS011;48003;52.084;5.224;2023-04-25T11:26:31;6.3;;;1.0;;
36833;SDS011;48003;52.084;5.224;2023-04-25T11:29:43;4.5;;;1.3;;
36833;SDS011;48003;52.084;5.224;2023-04-25T11:31:20;5.8;;;1.11;;
36833;SDS011;48003;52.084;5.224;2023-04-25T11:32:57;2.31;;;0.8;;
36833;SDS011;48003;52.084;5.224;2023-04-25T11:36:10;7.0;;;1.11;;
36833;SDS011;48003;52.084;5.224;2023-04-25T11:37:46;8.0;;;1.11;;
36833;SDS011;48003;52.084;5.224;2023-04-25T11:39:23;4.7;;;1.11;;
36833;SDS011;48003;52.084;5.224;2023-04-25T11:41:00;5.5;;;1.2;;
36833;SDS011;48003;52.084;5.224;2023-04-25T11:44:15;4.2;;;1.0;;
36833;SDS011;48003;52.084;5.224;2023-04-25T11:45:53;6.4;;;1.11;;
36833;SDS011;48003;52.084;5.224;2023-04-25T11:47:29;4.1;;;0.8;;
36833;SDS011;48003;52.084;5.224;2023-04-25T11:50:41;4.2;;;0.9;;
36833;SDS011;48003;52.084;5.224;2023-04-25T11:52:17;4.1;;;0.9;;
36833;SDS011;48003;52.084;5.224;2023-04-25T11:53:53;5.8;;;1.0;;
36833;SDS011;48003;52.084;5.224;2023-04-25T11:57:06;5.3;;;1.4;;
36833;SDS011;48003;52.084;5.224;2023-04-25T11:58:57;5.3;;;1.4;;
36833;SDS011;48003;52.084;5.224;2023-04-25T12:00:37;5.8;;;1.4;;
36833;SDS011;48003;52.084;5.224;2023-04-25T12:02:24;4.5;;;1.2;;
36833;SDS011;48003;52.084;5.224;2023-04-25T12:04:17;4.7;;;0.7;;
36833;SDS011;48003;52.084;5.224;2023-04-25T12:07:38;4.5;;;0.8;;
36833;SDS011;48003;52.084;5.224;2023-04-25T12:09:15;4.2;;;0.9;;
36833;SDS011;48003;52.084;5.224;2023-04-25T12:10:55;5.5;;;0.7;;
36833;SDS011;48003;52.084;5.224;2023-04-25T12:12:31;2.5;;;1.0;;
36833;SDS011;48003;52.084;5.224;2023-04-25T12:15:44;3.2;;;0.7;;
36833;SDS011;48003;52.084;5.224;2023-04-25T12:17:20;4.1;;;0.8;;
36833;SDS011;48003;52.084;5.224;2023-04-25T12:18:58;5.0;;;1.0;;
36833;SDS011;48003;52.084;5.224;2023-04-25T12:22:18;5.11;;;0.8;;
36833;SDS011;48003;52.084;5.224;2023-04-25T12:23:56;2.8;;;0.9;;
36833;SDS011;48003;52.084;5.224;2023-04-25T12:25:33;3.6;;;0.8;;
36833;SDS011;48003;52.084;5.224;2023-04-25T12:27:13;5.0;;;0.8;;
36833;SDS011;48003;52.084;5.224;2023-04-25T12:30:27;3.7;;;1.11;;
36833;SDS011;48003;52.084;5.224;2023-04-25T12:32:03;5.0;;;1.11;;
36833;SDS011;48003;52.084;5.224;2023-04-25T12:33:39;4.5;;;1.0;;
36833;SDS011;48003;52.084;5.224;2023-04-25T12:36:52;3.5;;;0.9;;
36833;SDS011;48003;52.084;5.224;2023-04-25T12:38:29;5.7;;;1.0;;
36833;SDS011;48003;52.084;5.224;2023-04-25T12:40:07;3.3;;;0.9;;
36833;SDS011;48003;52.084;5.224;2023-04-25T12:41:44;6.2;;;0.8;;
36833;SDS011;48003;52.084;5.224;2023-04-25T12:44:57;6.4;;;1.2;;
36833;SDS011;48003;52.084;5.224;2023-04-25T12:46:33;4.7;;;0.8;;
36833;SDS011;48003;52.084;5.224;2023-04-25T12:48:10;5.0;;;1.2;;
36833;SDS011;48003;52.084;5.224;2023-04-25T12:51:22;5.0;;;1.0;;